Harwich, MA (02645)

11:00 AM EST on December 05, 2016 (GMT -0500)
N2KNL / KB1VAJ Amateur Radio | | Change Station

Elev 36 ft 41.68 °N, 70.06 °W | Updated 7 seconds ago

Overcast
Overcast
41.4 °F
Feels Like 40 °F
N
3.2
Wind Variable Wind from SSE
Gusts 6.0 mph

Today
High -- | Low -- °F
--% Chance of Precip.
Yesterday
High -- | Low -- °F
Precip. -- in
Pressure 30.05 in
Visibility 10.0 miles
Clouds Mostly Cloudy 2200 ft
Overcast 4500 ft
Windchill 40 °F
Dew Point 37 °F
Humidity 85%
Rainfall 0.00 in
Snow Depth Not available.
6:52 AM 4:09 PM
Waxing Crescent, 32% visible
SPECI KCQX 051505Z AUTO 15005KT 10SM BKN022 OVC045 04/01 A3005 RMK AO2 T00440006
Pressure 30.05 in
Visibility 10.0 miles
Clouds Mostly Cloudy 2200 ft
Overcast 4500 ft
Windchill 40 °F
Dew Point 37 °F
Humidity 85%
Rainfall 0.00 in
Snow Depth Not available.
6:52 AM 4:09 PM
Waxing Crescent, 32% visible
SPECI KCQX 051505Z AUTO 15005KT 10SM BKN022 OVC045 04/01 A3005 RMK AO2 T00440006

10-Day Weather Forecast

Almanac

Astronomy

Dec. 05, 2016 Rise Set
Actual Time
Civil Twilight
Nautical Twilight
Astronomical Twilight
Moon
Length of Visible Light
Length of Day
Tomorrow will be .
, % of the Moon is Illuminated

Today's Extremes

State Highs State Lows

Community

WunderPhotos

Upload Photos

1,955,794 photos uploaded!

WunderBlog® & News

Nearby

Air Quality

  Air Quality AQ Index Pollutant
Not available.

Snow Depth

Station Depth Elevation

Earthquake Activity

City Distance Mag. Time & Date
Minimum magnitude displayed is 2.5.

Coastal Water Temperatures

Place Temperature

Stations

Nearby Weather Stations

Station Location Temp. Windchill Dew Point Humidity Wind Precip. Elev Updated Type
                   

Watches & Warnings

There are currently no watches in effect.